createdAt,value
2019-01-29T00:04:56.715Z,23.01
2019-01-29T00:07:24.906Z,23.03
2019-01-29T00:09:53.054Z,23.07
2019-01-29T00:12:21.235Z,23.02
2019-01-29T00:14:49.391Z,23.05
2019-01-29T00:17:17.544Z,23.04
2019-01-29T00:19:45.745Z,23.03
2019-01-29T00:22:13.873Z,23.06
2019-01-29T00:27:29.242Z,23.16
2019-01-29T00:29:57.448Z,23.04
2019-01-29T00:32:25.642Z,23.04
2019-01-29T00:34:53.796Z,23.06
2019-01-29T00:37:41.082Z,23.05
2019-01-29T00:40:09.250Z,23.05
2019-01-29T00:42:37.452Z,23.07
2019-01-29T00:45:24.669Z,23.08
2019-01-29T00:47:52.875Z,23.08
2019-01-29T00:50:21.041Z,23.02
2019-01-29T00:52:49.213Z,22.97
2019-01-29T00:55:17.469Z,23.12
2019-01-29T00:57:45.670Z,23.06
2019-01-29T01:00:15.228Z,23.06
2019-01-29T01:02:43.415Z,23.07
2019-01-29T01:05:11.617Z,23.17
2019-01-29T01:07:39.828Z,23.08
2019-01-29T01:10:09.076Z,23.14
2019-01-29T01:12:37.273Z,23.14
2019-01-29T01:17:53.152Z,23.02
2019-01-29T01:20:21.347Z,23.08
2019-01-29T01:22:51.241Z,23.09
2019-01-29T01:25:19.381Z,23.17
2019-01-29T01:27:47.590Z,23.07
2019-01-29T01:30:16.776Z,23.06
2019-01-29T01:32:44.957Z,23.13
2019-01-29T01:35:13.174Z,23.10
2019-01-29T01:37:41.361Z,23.05
2019-01-29T01:40:11.526Z,23.08
2019-01-29T01:42:58.681Z,23.06
2019-01-29T01:45:26.868Z,23.13
2019-01-29T01:47:55.101Z,23.06
2019-01-29T01:50:23.271Z,23.17
2019-01-29T01:52:58.887Z,23.08
2019-01-29T01:55:21.384Z,23.13
2019-01-29T01:57:49.639Z,23.14
2019-01-29T02:00:18.758Z,23.09
2019-01-29T02:02:46.970Z,23.20
2019-01-29T02:05:15.191Z,23.16
2019-01-29T02:07:43.378Z,23.16
2019-01-29T02:10:13.706Z,23.15
2019-01-29T02:12:41.888Z,23.11
2019-01-29T02:15:10.089Z,23.13
2019-01-29T02:17:38.258Z,23.04
2019-01-29T02:20:06.814Z,23.13
2019-01-29T02:22:35.041Z,23.05
2019-01-29T02:25:03.270Z,23.08
2019-01-29T02:27:31.485Z,23.17
2019-01-29T02:29:59.649Z,23.05
2019-01-29T02:32:27.855Z,23.07
2019-01-29T02:35:15.120Z,23.00
2019-01-29T02:37:43.324Z,23.04
2019-01-29T02:40:30.577Z,23.00
2019-01-29T02:42:58.716Z,22.99
2019-01-29T02:45:26.978Z,23.00
2019-01-29T02:47:55.234Z,23.02
2019-01-29T02:50:23.391Z,23.03
2019-01-29T02:52:51.601Z,22.99
2019-01-29T02:55:19.818Z,23.08
2019-01-29T02:57:47.940Z,23.00
2019-01-29T03:00:35.203Z,23.05
2019-01-29T03:03:03.368Z,23.07
2019-01-29T03:05:31.605Z,23.06
2019-01-29T03:07:59.748Z,23.07
2019-01-29T03:10:28.007Z,22.99
2019-01-29T03:12:56.180Z,23.00
2019-01-29T03:15:43.452Z,23.02
2019-01-29T03:18:11.633Z,23.04
2019-01-29T03:20:39.800Z,23.08
2019-01-29T03:23:27.954Z,23.05
2019-01-29T03:25:56.918Z,23.07
2019-01-29T03:28:25.098Z,23.05
2019-01-29T03:31:12.326Z,23.04
2019-01-29T03:33:59.425Z,23.06
2019-01-29T03:36:27.585Z,23.05
2019-01-29T03:38:55.817Z,23.10
2019-01-29T03:41:24.061Z,23.05
2019-01-29T03:43:52.228Z,23.07
2019-01-29T03:46:20.402Z,23.06
2019-01-29T03:48:48.630Z,22.99
2019-01-29T03:51:16.811Z,23.05
2019-01-29T03:53:44.977Z,23.01
2019-01-29T03:56:13.171Z,22.97
2019-01-29T03:58:41.337Z,23.01
2019-01-29T04:01:09.525Z,23.06
2019-01-29T04:03:37.818Z,23.05
2019-01-29T04:06:05.972Z,23.00
2019-01-29T04:08:34.154Z,23.12
2019-01-29T04:11:02.347Z,23.08
2019-01-29T04:13:30.486Z,23.03
2019-01-29T04:15:58.652Z,23.09
2019-01-29T04:18:26.816Z,23.11
2019-01-29T04:20:54.961Z,23.13
2019-01-29T04:23:23.166Z,23.06
2019-01-29T04:25:51.378Z,23.07
2019-01-29T04:28:19.612Z,22.95
2019-01-29T04:30:47.917Z,23.09
2019-01-29T04:33:16.195Z,23.10
2019-01-29T04:35:44.358Z,23.01
2019-01-29T04:38:13.057Z,23.12
2019-01-29T04:40:41.504Z,23.11
2019-01-29T04:43:09.702Z,23.03
2019-01-29T04:45:37.893Z,23.02
2019-01-29T04:48:06.039Z,23.14
2019-01-29T04:50:34.216Z,23.12
2019-01-29T04:53:02.423Z,23.07
2019-01-29T04:55:30.616Z,23.12
2019-01-29T04:57:58.837Z,23.03
2019-01-29T05:00:27.330Z,23.03
2019-01-29T05:02:55.546Z,23.14
2019-01-29T05:05:23.835Z,22.99
2019-01-29T05:07:51.993Z,22.99
2019-01-29T05:10:20.183Z,23.08
2019-01-29T05:12:48.321Z,23.12
2019-01-29T05:15:16.613Z,23.06
2019-01-29T05:17:44.837Z,23.07
2019-01-29T05:20:14.300Z,23.04
2019-01-29T05:22:42.447Z,23.07
2019-01-29T05:25:10.615Z,23.04
2019-01-29T05:27:38.795Z,22.99
2019-01-29T05:30:08.159Z,23.08
2019-01-29T05:32:36.311Z,23.06
2019-01-29T05:35:05.069Z,23.08
2019-01-29T05:37:33.262Z,23.10
2019-01-29T05:40:01.393Z,23.02
2019-01-29T05:42:29.625Z,23.03
2019-01-29T05:44:57.762Z,23.09
2019-01-29T05:47:25.968Z,23.14
2019-01-29T05:49:54.118Z,23.06
2019-01-29T05:52:22.293Z,23.12
2019-01-29T05:54:50.548Z,23.16
2019-01-29T05:57:18.724Z,23.11
2019-01-29T05:59:46.970Z,23.11
2019-01-29T06:02:15.104Z,23.06
2019-01-29T06:04:43.350Z,23.09
2019-01-29T06:07:11.492Z,23.04
2019-01-29T06:09:39.719Z,23.03
2019-01-29T06:12:07.864Z,23.12
2019-01-29T06:14:36.069Z,23.09
2019-01-29T06:17:04.234Z,23.12
2019-01-29T06:19:32.495Z,23.14
2019-01-29T06:22:00.658Z,23.05
2019-01-29T06:24:28.838Z,23.04
2019-01-29T06:26:57.002Z,23.03
2019-01-29T06:29:25.171Z,22.98
2019-01-29T06:31:53.355Z,23.09
2019-01-29T06:34:21.511Z,23.14
2019-01-29T06:36:50.857Z,23.19
2019-01-29T06:39:19.281Z,23.10
2019-01-29T06:41:47.428Z,23.14
2019-01-29T06:44:15.659Z,23.14
2019-01-29T06:46:43.817Z,23.21
2019-01-29T06:49:11.984Z,23.17
2019-01-29T06:51:40.285Z,23.16
2019-01-29T06:54:08.488Z,23.06
2019-01-29T06:56:36.737Z,23.09
2019-01-29T06:59:04.918Z,23.15
2019-01-29T07:01:33.175Z,23.18
2019-01-29T07:04:01.336Z,23.03
2019-01-29T07:06:29.549Z,23.07
2019-01-29T07:08:57.737Z,23.06
2019-01-29T07:11:25.980Z,23.16
2019-01-29T07:13:54.166Z,23.13
2019-01-29T07:16:44.513Z,23.13
2019-01-29T07:19:19.734Z,23.07
2019-01-29T07:21:48.038Z,23.11
2019-01-29T07:24:16.257Z,23.14
2019-01-29T07:26:44.452Z,23.15
2019-01-29T07:29:12.676Z,23.19
2019-01-29T07:31:40.897Z,23.06
2019-01-29T07:34:09.049Z,23.07
2019-01-29T07:36:37.260Z,23.06
2019-01-29T07:39:07.527Z,23.07
2019-01-29T07:41:35.708Z,23.13
2019-01-29T07:44:03.913Z,23.07
2019-01-29T07:46:32.082Z,23.02
2019-01-29T07:49:00.255Z,23.15
2019-01-29T07:51:28.517Z,23.14
2019-01-29T07:53:56.737Z,23.11
2019-01-29T07:56:24.949Z,23.06
2019-01-29T07:58:53.104Z,23.19
2019-01-29T08:01:21.327Z,23.06
2019-01-29T08:03:49.500Z,23.04
2019-01-29T08:06:17.661Z,23.06
2019-01-29T08:08:45.860Z,23.11
2019-01-29T08:11:14.032Z,23.01
2019-01-29T08:13:42.336Z,23.00
2019-01-29T08:16:10.562Z,22.99
2019-01-29T08:18:38.732Z,23.07
2019-01-29T08:21:07.025Z,23.04
2019-01-29T08:23:35.209Z,23.09
2019-01-29T08:26:03.421Z,23.10
2019-01-29T08:28:31.689Z,23.06
2019-01-29T08:30:59.905Z,23.09
2019-01-29T08:33:28.124Z,23.14
2019-01-29T08:35:56.325Z,23.08
2019-01-29T08:38:24.531Z,23.07
2019-01-29T08:40:52.761Z,23.18
2019-01-29T08:43:20.965Z,23.06
2019-01-29T08:45:49.167Z,23.16
2019-01-29T08:48:17.641Z,23.08
2019-01-29T08:50:45.829Z,23.12
2019-01-29T08:53:14.028Z,23.20
2019-01-29T08:55:42.199Z,23.21
2019-01-29T08:58:11.493Z,23.26
2019-01-29T09:00:39.806Z,23.10
2019-01-29T09:03:08.041Z,23.10
2019-01-29T09:05:36.251Z,23.23
2019-01-29T09:08:04.669Z,23.21
2019-01-29T09:10:32.921Z,23.22
2019-01-29T09:13:01.089Z,23.23
2019-01-29T09:15:29.253Z,23.13
2019-01-29T09:17:57.448Z,23.19
2019-01-29T09:20:25.690Z,23.00
2019-01-29T09:22:54.025Z,23.17
2019-01-29T09:25:22.774Z,23.17
2019-01-29T09:27:51.395Z,23.26
2019-01-29T09:30:19.746Z,23.40
2019-01-29T09:32:48.076Z,23.34
2019-01-29T09:35:16.451Z,22.57
2019-01-29T09:37:44.653Z,23.35
2019-01-29T09:40:14.022Z,23.45
2019-01-29T09:45:29.464Z,23.20
2019-01-29T09:47:57.636Z,23.23
2019-01-29T09:50:26.099Z,23.22
2019-01-29T09:52:54.260Z,23.25
2019-01-29T09:55:28.978Z,23.19
2019-01-29T09:57:52.420Z,23.17
2019-01-29T10:00:39.743Z,23.19
2019-01-29T10:03:07.942Z,23.26
2019-01-29T10:05:36.230Z,23.21
2019-01-29T10:08:04.566Z,23.18
2019-01-29T10:10:32.709Z,23.30
2019-01-29T10:13:00.866Z,23.21
2019-01-29T10:15:30.280Z,23.14
2019-01-29T10:18:17.529Z,23.25
2019-01-29T10:20:45.740Z,23.23
2019-01-29T10:23:13.891Z,23.28
2019-01-29T10:25:42.030Z,23.20
2019-01-29T10:28:10.177Z,23.25
2019-01-29T10:30:38.384Z,23.21
2019-01-29T10:33:06.563Z,23.24
2019-01-29T10:35:34.768Z,23.33
2019-01-29T10:38:02.987Z,23.24
2019-01-29T10:40:31.206Z,23.30
2019-01-29T10:42:59.322Z,23.21
2019-01-29T10:45:28.462Z,23.15
2019-01-29T10:47:56.612Z,23.21
2019-01-29T10:50:25.382Z,23.21
2019-01-29T10:52:53.613Z,23.29
2019-01-29T10:55:21.786Z,23.21
2019-01-29T10:57:49.998Z,23.31
2019-01-29T11:00:19.454Z,23.26
2019-01-29T11:02:47.645Z,23.26
2019-01-29T11:05:16.387Z,23.25
2019-01-29T11:08:03.636Z,23.22
2019-01-29T11:10:31.795Z,23.22
2019-01-29T11:13:00.024Z,23.32
2019-01-29T11:15:29.582Z,23.28
2019-01-29T11:18:17.309Z,23.28
2019-01-29T11:20:45.454Z,23.25
2019-01-29T11:23:13.630Z,23.25
2019-01-29T11:25:41.789Z,23.21
2019-01-29T11:28:09.948Z,23.23
2019-01-29T11:30:38.105Z,23.31
2019-01-29T11:33:06.278Z,23.27
2019-01-29T11:35:34.422Z,23.25
2019-01-29T11:38:02.563Z,23.21
2019-01-29T11:40:30.778Z,23.29
2019-01-29T11:42:58.934Z,23.26
2019-01-29T11:45:37.789Z,23.23
2019-01-29T11:48:05.952Z,23.14
2019-01-29T11:50:34.116Z,23.15
2019-01-29T11:53:02.310Z,23.21
2019-01-29T11:55:30.498Z,23.23
2019-01-29T11:57:58.692Z,23.26
2019-01-29T12:00:47.006Z,23.26
2019-01-29T12:03:15.872Z,23.16
2019-01-29T12:05:44.110Z,23.26
2019-01-29T12:08:13.411Z,23.26
2019-01-29T12:10:41.676Z,23.23
2019-01-29T12:13:09.831Z,23.20
2019-01-29T12:15:38.085Z,23.18
2019-01-29T12:18:06.485Z,23.15
2019-01-29T12:20:34.718Z,23.13
2019-01-29T12:23:02.901Z,23.13
2019-01-29T12:25:31.069Z,23.17
2019-01-29T12:27:59.260Z,23.21
2019-01-29T12:30:27.498Z,23.28
2019-01-29T12:32:55.651Z,23.27
2019-01-29T12:35:24.198Z,23.18
2019-01-29T12:37:52.401Z,23.23
2019-01-29T12:40:20.545Z,23.15
2019-01-29T12:42:48.892Z,23.16
2019-01-29T12:45:17.135Z,23.27
2019-01-29T12:47:45.382Z,23.26
2019-01-29T12:50:16.207Z,23.30
2019-01-29T12:55:27.929Z,23.29
2019-01-29T12:57:56.110Z,23.30
2019-01-29T13:03:13.268Z,23.24
2019-01-29T13:05:41.396Z,23.19
2019-01-29T13:08:09.865Z,23.27
2019-01-29T13:10:57.105Z,23.27
2019-01-29T13:13:25.267Z,23.25
2019-01-29T13:15:53.696Z,23.18
2019-01-29T13:18:21.914Z,23.21
2019-01-29T13:20:50.335Z,23.26
2019-01-29T13:23:18.488Z,23.15
2019-01-29T13:25:47.013Z,23.03
2019-01-29T13:28:15.313Z,23.14
2019-01-29T13:30:43.449Z,23.20
2019-01-29T13:33:31.894Z,23.14
2019-01-29T13:36:00.031Z,23.14
2019-01-29T13:38:28.179Z,23.09
2019-01-29T13:40:56.641Z,23.07
2019-01-29T13:43:24.766Z,23.07
2019-01-29T13:45:53.221Z,23.07
2019-01-29T13:48:21.351Z,23.01
2019-01-29T13:50:51.649Z,23.04
2019-01-29T13:53:19.800Z,23.04
2019-01-29T13:55:47.999Z,23.06
2019-01-29T14:01:03.513Z,23.07
2019-01-29T14:03:31.668Z,23.03
2019-01-29T14:06:18.781Z,23.07
2019-01-29T14:08:46.996Z,23.08
2019-01-29T14:11:15.128Z,23.00
2019-01-29T14:13:43.287Z,23.01
2019-01-29T14:16:13.720Z,22.98
2019-01-29T14:18:41.882Z,22.96
2019-01-29T14:21:10.032Z,23.01
2019-01-29T14:23:38.205Z,22.94
2019-01-29T14:26:25.282Z,23.02
2019-01-29T14:28:53.486Z,23.00
2019-01-29T14:31:21.630Z,22.97
2019-01-29T14:34:08.862Z,22.92
2019-01-29T14:36:37.013Z,22.96
2019-01-29T14:39:24.257Z,22.92
2019-01-29T14:41:52.392Z,23.02
2019-01-29T14:44:21.880Z,23.01
2019-01-29T14:46:50.089Z,22.92
2019-01-29T14:49:37.168Z,22.92
2019-01-29T14:52:05.303Z,22.93
2019-01-29T14:54:52.389Z,22.91
2019-01-29T14:57:20.542Z,22.86
2019-01-29T14:59:48.705Z,22.74
2019-01-29T15:02:16.854Z,22.84
2019-01-29T15:04:45.058Z,22.90
2019-01-29T15:07:13.313Z,22.96
2019-01-29T15:09:41.510Z,22.93
2019-01-29T15:14:56.857Z,22.85
2019-01-29T15:17:43.941Z,22.83
2019-01-29T15:20:12.181Z,22.86
2019-01-29T15:22:40.311Z,22.83
2019-01-29T15:25:09.205Z,22.79
2019-01-29T15:27:37.379Z,22.82
2019-01-29T15:30:07.384Z,22.77
2019-01-29T15:32:54.637Z,22.74
2019-01-29T15:35:22.811Z,22.73
2019-01-29T15:37:50.958Z,22.77
2019-01-29T15:40:19.346Z,22.75
2019-01-29T15:42:47.540Z,22.82
2019-01-29T15:45:16.863Z,22.74
2019-01-29T15:47:45.095Z,22.71
2019-01-29T15:50:14.824Z,22.71
2019-01-29T15:52:48.476Z,22.81
2019-01-29T15:55:13.284Z,22.70
2019-01-29T15:57:41.556Z,22.73
2019-01-29T16:00:12.160Z,22.82
2019-01-29T16:02:40.328Z,22.77
2019-01-29T16:05:10.037Z,22.76
2019-01-29T16:07:38.215Z,22.76
2019-01-29T16:10:07.396Z,22.79
2019-01-29T16:12:35.576Z,22.74
2019-01-29T16:15:03.822Z,22.68
2019-01-29T16:17:32.122Z,22.69
2019-01-29T16:20:03.816Z,22.68
2019-01-29T16:22:32.082Z,22.66
2019-01-29T16:25:00.336Z,22.66
2019-01-29T16:27:28.555Z,22.71
2019-01-29T16:29:56.720Z,22.69
2019-01-29T16:32:24.934Z,22.61
2019-01-29T16:34:53.110Z,22.63
2019-01-29T16:37:21.599Z,22.19
2019-01-29T16:39:50.048Z,22.64
2019-01-29T16:42:18.242Z,22.66
2019-01-29T16:44:46.429Z,22.63
2019-01-29T16:47:14.622Z,22.67
2019-01-29T16:49:42.867Z,22.69
2019-01-29T16:52:11.194Z,22.67
2019-01-29T16:54:39.345Z,22.68
2019-01-29T16:57:07.515Z,22.72
2019-01-29T16:59:35.692Z,22.63
2019-01-29T17:02:03.888Z,22.64
2019-01-29T17:04:32.185Z,22.67
2019-01-29T17:07:00.468Z,22.66
2019-01-29T17:09:28.656Z,22.65
2019-01-29T17:11:56.840Z,22.70
2019-01-29T17:14:25.032Z,22.73
2019-01-29T17:16:53.282Z,22.71
2019-01-29T17:19:21.580Z,22.67
2019-01-29T17:21:49.909Z,22.71
2019-01-29T17:24:18.092Z,22.70
2019-01-29T17:26:46.299Z,22.67
2019-01-29T17:29:17.854Z,22.64
2019-01-29T17:31:46.104Z,22.71
2019-01-29T17:34:14.445Z,22.71
2019-01-29T17:36:42.629Z,22.70
2019-01-29T17:39:11.144Z,22.71
2019-01-29T17:41:39.416Z,22.68
2019-01-29T17:44:07.565Z,22.66
2019-01-29T17:46:35.788Z,22.65
2019-01-29T17:49:03.941Z,22.69
2019-01-29T17:51:32.232Z,22.73
2019-01-29T17:54:00.411Z,22.74
2019-01-29T17:56:28.584Z,22.78
2019-01-29T17:58:56.707Z,22.77
2019-01-29T18:01:24.873Z,22.74
2019-01-29T18:03:53.118Z,22.73
2019-01-29T18:06:21.274Z,22.81
2019-01-29T18:08:50.105Z,22.85
2019-01-29T18:11:18.424Z,22.80
2019-01-29T18:13:46.635Z,22.89
2019-01-29T18:16:14.864Z,22.95
2019-01-29T18:18:43.082Z,22.99
2019-01-29T18:21:11.234Z,23.09
2019-01-29T18:23:39.364Z,23.05
2019-01-29T18:26:07.513Z,23.17
2019-01-29T18:28:35.728Z,22.94
2019-01-29T18:31:03.882Z,22.95
2019-01-29T18:33:32.048Z,22.88
2019-01-29T18:36:00.261Z,22.91
2019-01-29T18:38:28.401Z,22.85
2019-01-29T18:40:56.915Z,22.92
2019-01-29T18:43:25.144Z,22.98
2019-01-29T18:45:53.275Z,22.94
2019-01-29T18:48:21.417Z,23.02
2019-01-29T18:50:49.548Z,22.97
2019-01-29T18:53:17.788Z,22.90
2019-01-29T18:55:45.919Z,22.83
2019-01-29T18:58:15.375Z,22.93
2019-01-29T19:00:53.633Z,22.98
2019-01-29T19:03:13.448Z,23.00
2019-01-29T19:05:41.579Z,22.99
2019-01-29T19:08:09.716Z,22.89
2019-01-29T19:10:37.870Z,22.87
2019-01-29T19:13:06.012Z,22.93
2019-01-29T19:15:34.165Z,22.90
2019-01-29T19:18:02.305Z,22.97
2019-01-29T19:20:30.451Z,22.92
2019-01-29T19:22:58.656Z,22.98
2019-01-29T19:25:26.834Z,22.92
2019-01-29T19:27:54.973Z,23.00
2019-01-29T19:30:24.202Z,22.96
2019-01-29T19:32:52.333Z,22.94
2019-01-29T19:35:20.494Z,22.90
2019-01-29T19:37:48.654Z,22.99
2019-01-29T19:40:16.847Z,23.02
2019-01-29T19:42:45.014Z,22.94
2019-01-29T19:45:15.066Z,23.02
2019-01-29T19:47:43.254Z,22.97
2019-01-29T19:50:13.316Z,22.97
2019-01-29T19:52:41.449Z,22.99
2019-01-29T19:55:09.652Z,23.01
2019-01-29T19:57:37.788Z,23.05
2019-01-29T20:00:07.240Z,23.02
2019-01-29T20:02:35.404Z,22.91
2019-01-29T20:05:03.568Z,23.12
2019-01-29T20:07:31.820Z,22.64
2019-01-29T20:09:59.947Z,23.07
2019-01-29T20:12:28.192Z,23.00
2019-01-29T20:14:56.466Z,23.13
2019-01-29T20:17:24.724Z,23.12
2019-01-29T20:19:52.971Z,23.11
2019-01-29T20:22:21.216Z,23.13
2019-01-29T20:24:49.531Z,23.08
2019-01-29T20:27:17.715Z,23.07
2019-01-29T20:29:45.901Z,23.13
2019-01-29T20:32:14.106Z,23.14
2019-01-29T20:34:42.315Z,23.09
2019-01-29T20:37:10.577Z,23.07
2019-01-29T20:39:38.838Z,23.03
2019-01-29T20:42:07.025Z,23.05
2019-01-29T20:44:35.219Z,23.11
2019-01-29T20:47:03.442Z,23.03
2019-01-29T20:49:31.691Z,23.01
2019-01-29T20:51:59.904Z,23.05
2019-01-29T20:54:28.122Z,23.04
2019-01-29T20:56:56.456Z,23.01
2019-01-29T20:59:24.723Z,23.01
2019-01-29T21:01:52.934Z,23.01
2019-01-29T21:04:21.296Z,23.02
2019-01-29T21:06:49.427Z,23.02
2019-01-29T21:09:17.647Z,22.92
2019-01-29T21:11:45.866Z,23.03
2019-01-29T21:14:14.038Z,23.04
2019-01-29T21:16:42.291Z,23.01
2019-01-29T21:19:10.430Z,23.03
2019-01-29T21:21:38.762Z,22.97
2019-01-29T21:24:07.015Z,23.01
2019-01-29T21:26:35.228Z,23.01
2019-01-29T21:29:03.492Z,23.01
2019-01-29T21:31:31.736Z,22.99
2019-01-29T21:33:59.891Z,23.02
2019-01-29T21:36:30.391Z,23.09
2019-01-29T21:39:16.893Z,23.03
2019-01-29T21:41:45.032Z,23.06
2019-01-29T21:44:13.291Z,23.07
2019-01-29T21:46:41.507Z,22.99
2019-01-29T21:49:09.710Z,23.03
2019-01-29T21:51:37.875Z,23.06
2019-01-29T21:54:06.098Z,23.04
2019-01-29T21:56:34.279Z,23.13
2019-01-29T21:59:12.689Z,23.17
2019-01-29T22:01:32.347Z,23.04
2019-01-29T22:04:00.507Z,23.00
2019-01-29T22:06:47.738Z,23.01
2019-01-29T22:09:15.946Z,22.99
2019-01-29T22:11:44.178Z,22.99
2019-01-29T22:14:12.352Z,23.04
2019-01-29T22:16:40.547Z,23.05
2019-01-29T22:19:08.754Z,22.96
2019-01-29T22:21:36.923Z,23.05
2019-01-29T22:26:39.094Z,22.98
2019-01-29T22:29:26.501Z,22.97
2019-01-29T22:31:54.642Z,23.02
2019-01-29T22:34:22.820Z,22.96
2019-01-29T22:36:51.026Z,22.96
2019-01-29T22:39:19.179Z,22.93
2019-01-29T22:41:47.349Z,23.04
2019-01-29T22:44:15.535Z,22.96
2019-01-29T22:47:02.604Z,22.97
2019-01-29T22:49:30.820Z,22.99
2019-01-29T22:51:59.014Z,22.94
2019-01-29T22:54:27.194Z,22.90
2019-01-29T22:56:55.488Z,22.79
2019-01-29T22:59:32.949Z,22.91
2019-01-29T23:01:53.520Z,22.91
2019-01-29T23:04:40.818Z,20.70
2019-01-29T23:07:28.072Z,22.92
2019-01-29T23:09:56.258Z,22.91
2019-01-29T23:12:24.441Z,22.90
2019-01-29T23:14:52.659Z,22.86
2019-01-29T23:17:20.823Z,22.84
2019-01-29T23:19:49.007Z,22.83
2019-01-29T23:22:17.134Z,22.85
2019-01-29T23:24:45.363Z,22.84
2019-01-29T23:27:13.547Z,22.81
2019-01-29T23:30:00.798Z,22.87
2019-01-29T23:32:48.055Z,22.92
2019-01-29T23:35:16.211Z,22.98
2019-01-29T23:37:44.400Z,22.95
2019-01-29T23:40:13.026Z,23.00
2019-01-29T23:42:41.213Z,22.95
2019-01-29T23:45:10.196Z,22.92
2019-01-29T23:47:38.393Z,22.94
2019-01-29T23:50:25.607Z,22.88
2019-01-29T23:52:53.776Z,22.91
2019-01-29T23:55:21.971Z,22.93
2019-01-29T23:57:50.188Z,23.02
